Time;durP1;ratioP1;P1;durP2;ratioP2;P2;SDS_P1;SDS_P2;PMS_P1;PMS_P2;Temp;Humidity;BMP_temperature;BMP_pressure;BME280_temperature;BME280_humidity;BME280_pressure;Samples;Min_cycle;Max_cycle;Signal;HPM_P1;HPM_P2
2021/10/06 00:00:52;;;;;;;12.20;8.08;;;;;;;21.45;56.55;101878.50;1783482;79;21663;-50
2021/10/06 00:03:18;;;;;;;10.88;7.60;;;;;;;21.43;56.52;101875.19;1778153;79;21060;-52
2021/10/06 00:05:44;;;;;;;9.43;7.37;;;;;;;21.43;56.50;101873.00;1787567;77;21049;-49
2021/10/06 00:08:10;;;;;;;11.65;8.08;;;;;;;21.43;56.48;101871.63;1785699;78;21076;-51
2021/10/06 00:10:36;;;;;;;10.63;8.43;;;;;;;21.41;56.45;101862.22;1793828;79;21742;-51
2021/10/06 00:13:03;;;;;;;12.33;7.65;;;;;;;21.41;56.44;101872.73;1789132;79;21022;-51
2021/10/06 00:15:30;;;;;;;11.68;7.45;;;;;;;21.39;56.44;101862.50;1785317;77;21575;-51
2021/10/06 00:17:56;;;;;;;10.55;7.20;;;;;;;21.38;56.41;101860.88;1790541;77;21058;-51
2021/10/06 00:20:23;;;;;;;10.45;7.60;;;;;;;21.39;56.40;101861.67;1788182;78;21420;-51
2021/10/06 00:22:49;;;;;;;12.03;7.50;;;;;;;21.37;56.38;101857.84;1787698;78;20982;-49
2021/10/06 00:25:15;;;;;;;10.43;7.72;;;;;;;21.38;56.36;101861.44;1790146;78;22637;-48
2021/10/06 00:27:41;;;;;;;11.00;7.70;;;;;;;21.37;56.35;101868.91;1784942;79;21317;-51
2021/10/06 00:30:08;;;;;;;13.60;8.08;;;;;;;21.36;56.34;101859.52;1781785;79;21137;-51
2021/10/06 00:32:35;;;;;;;10.10;7.67;;;;;;;21.36;56.32;101859.52;1782015;78;21066;-51
2021/10/06 00:35:01;;;;;;;9.83;6.70;;;;;;;21.36;56.29;101862.28;1787549;79;22139;-50
2021/10/06 00:37:27;;;;;;;9.20;6.70;;;;;;;21.34;56.28;101864.54;1783443;78;20935;-49
2021/10/06 00:39:53;;;;;;;9.50;7.15;;;;;;;21.34;56.24;101863.16;1783429;79;21326;-50
2021/10/06 00:42:19;;;;;;;8.93;6.62;;;;;;;21.33;56.25;101858.73;1788264;79;21084;-51
2021/10/06 00:44:45;;;;;;;9.55;6.80;;;;;;;21.32;56.24;101862.05;1784451;78;21053;-49
2021/10/06 00:47:12;;;;;;;9.53;6.58;;;;;;;21.32;56.22;101868.15;1789127;77;20899;-49
2021/10/06 00:49:39;;;;;;;11.75;7.08;;;;;;;21.31;56.18;101860.41;1791854;79;21187;-50
2021/10/06 00:52:05;;;;;;;9.65;7.00;;;;;;;21.30;56.18;101861.52;1790975;78;21492;-51
2021/10/06 00:54:31;;;;;;;9.28;6.55;;;;;;;21.29;56.13;101859.06;1787961;78;21114;-51
2021/10/06 00:56:57;;;;;;;10.53;6.90;;;;;;;21.29;56.14;101865.42;1789542;77;21700;-51
2021/10/06 00:59:24;;;;;;;11.30;7.05;;;;;;;21.28;56.13;101863.77;1788137;78;20905;-51
2021/10/06 01:01:50;;;;;;;9.15;6.45;;;;;;;21.27;56.11;101852.98;1789965;77;21209;-51
2021/10/06 01:04:16;;;;;;;10.25;7.20;;;;;;;21.26;56.08;101857.69;1793760;78;21966;-50
2021/10/06 01:06:42;;;;;;;9.40;6.65;;;;;;;21.27;56.07;101858.52;1796046;78;21042;-51
2021/10/06 01:09:08;;;;;;;9.28;6.87;;;;;;;21.26;56.06;101858.28;1794922;77;21512;-51
2021/10/06 01:11:34;;;;;;;8.38;6.33;;;;;;;21.24;56.06;101847.50;1786657;77;20960;-51
2021/10/06 01:14:00;;;;;;;9.78;6.33;;;;;;;21.25;56.05;101848.33;1783202;79;21144;-51
2021/10/06 01:16:26;;;;;;;8.08;6.33;;;;;;;21.24;56.00;101836.98;1792240;78;21997;-49
2021/10/06 01:18:52;;;;;;;9.33;7.00;;;;;;;21.23;56.00;101838.09;1786186;79;20981;-49
2021/10/06 01:21:18;;;;;;;8.98;6.40;;;;;;;21.22;55.98;101833.67;1789616;78;20907;-53
2021/10/06 01:23:45;;;;;;;8.95;6.08;;;;;;;21.22;55.96;101841.42;1783792;79;21081;-51
2021/10/06 01:26:18;;;;;;;9.03;6.42;;;;;;;21.21;55.93;101832.05;1793863;77;21093;-50
2021/10/06 01:28:39;;;;;;;7.50;6.22;;;;;;;21.20;55.93;101824.30;1788964;77;21251;-50
2021/10/06 01:31:05;;;;;;;10.68;6.90;;;;;;;21.20;55.90;101829.02;1786744;77;21523;-52
2021/10/06 01:33:31;;;;;;;8.43;6.50;;;;;;;21.19;55.89;101830.13;1769742;78;21135;-49
2021/10/06 01:35:57;;;;;;;7.25;5.78;;;;;;;21.18;55.87;101831.23;1788590;79;21049;-50
2021/10/06 01:38:23;;;;;;;7.53;5.90;;;;;;;21.18;55.85;101829.30;1792848;78;20922;-52
2021/10/06 01:40:49;;;;;;;7.55;6.03;;;;;;;21.17;55.83;101831.83;1784772;77;21457;-49
2021/10/06 01:43:15;;;;;;;9.63;6.00;;;;;;;21.18;55.83;101828.47;1790993;78;20883;-50
2021/10/06 01:45:44;;;;;;;7.83;6.05;;;;;;;21.16;55.78;101830.17;1794291;77;22657;-53
2021/10/06 01:48:12;;;;;;;8.98;6.15;;;;;;;21.16;55.76;101827.96;1790745;77;20981;-51
2021/10/06 01:50:41;;;;;;;8.20;5.90;;;;;;;21.15;55.75;101820.21;1791139;78;22305;-52
2021/10/06 01:53:06;;;;;;;7.72;5.85;;;;;;;21.14;55.75;101822.71;1759129;80;21081;-51
2021/10/06 01:55:32;;;;;;;7.95;5.83;;;;;;;21.13;55.73;101827.97;1771326;79;20855;-51
2021/10/06 01:58:01;;;;;;;8.28;5.87;;;;;;;21.14;55.71;101832.39;1759498;79;21510;-50
2021/10/06 02:00:27;;;;;;;7.80;5.87;;;;;;;21.13;55.69;101827.18;1792040;79;21050;-49
2021/10/06 02:02:54;;;;;;;9.78;5.78;;;;;;;21.12;55.67;101824.11;1789654;78;21101;-48
2021/10/06 02:05:20;;;;;;;7.58;5.75;;;;;;;21.12;55.66;101829.12;1783778;78;21802;-51
2021/10/06 02:07:47;;;;;;;7.70;5.62;;;;;;;21.11;55.64;101823.28;1786608;78;21559;-51
2021/10/06 02:10:13;;;;;;;6.87;5.40;;;;;;;21.11;55.62;101819.69;1758212;80;21089;-52
2021/10/06 02:12:39;;;;;;;7.17;5.58;;;;;;;21.10;55.62;101818.86;1767104;80;21066;-51
2021/10/06 02:15:07;;;;;;;7.20;5.30;;;;;;;21.09;55.59;101814.44;1774301;79;21077;-48
2021/10/06 02:17:33;;;;;;;6.67;5.37;;;;;;;21.08;55.56;101815.58;1761558;79;21548;-50
2021/10/06 02:19:59;;;;;;;8.03;5.80;;;;;;;21.08;55.55;101816.97;1777235;79;20945;-50
2021/10/06 02:22:26;;;;;;;9.35;5.58;;;;;;;21.09;55.55;101820.56;1777504;79;21538;-51
2021/10/06 02:24:52;;;;;;;6.28;5.17;;;;;;;21.08;55.53;101811.98;1774503;79;21080;-49
2021/10/06 02:27:18;;;;;;;8.10;5.42;;;;;;;21.07;55.51;101811.72;1790245;79;21628;-48
2021/10/06 02:29:44;;;;;;;7.55;5.30;;;;;;;21.07;55.50;101808.95;1769143;79;21979;-51
2021/10/06 02:32:10;;;;;;;7.20;5.30;;;;;;;21.06;55.47;101804.53;1782397;79;21350;-52
2021/10/06 02:34:36;;;;;;;6.33;4.87;;;;;;;21.05;55.45;101800.94;1794421;79;21018;-48
2021/10/06 02:37:03;;;;;;;6.78;4.97;;;;;;;21.06;55.45;101805.36;1780032;79;21521;-52
2021/10/06 02:39:29;;;;;;;6.80;5.05;;;;;;;21.04;55.42;101804.02;1788203;79;21541;-49
2021/10/06 02:41:55;;;;;;;6.72;5.30;;;;;;;21.04;55.42;101803.46;1770697;79;21954;-51
2021/10/06 02:44:21;;;;;;;6.50;5.03;;;;;;;21.03;55.42;101803.75;1775824;79;21101;-51
2021/10/06 02:46:48;;;;;;;6.00;4.12;;;;;;;21.02;55.42;101802.92;1775639;79;21073;-51
2021/10/06 02:49:14;;;;;;;4.90;3.95;;;;;;;21.04;55.42;101799.87;1789302;79;21105;-49
2021/10/06 02:51:40;;;;;;;5.97;4.55;;;;;;;21.03;55.46;101805.95;1775769;79;21576;-51
2021/10/06 02:54:06;;;;;;;6.17;4.28;;;;;;;21.02;55.49;101797.39;1784052;79;21301;-52
2021/10/06 02:56:32;;;;;;;5.70;4.10;;;;;;;21.02;55.50;101793.80;1776108;79;21917;-50
2021/10/06 02:58:58;;;;;;;6.37;4.75;;;;;;;21.02;55.51;101795.17;1771222;79;21085;-52
2021/10/06 03:01:24;;;;;;;6.90;4.03;;;;;;;21.01;55.53;101795.73;1781302;79;21686;-50
2021/10/06 03:03:50;;;;;;;6.95;3.87;;;;;;;21.01;55.55;101799.88;1776569;79;20988;-50
2021/10/06 03:06:17;;;;;;;5.78;3.92;;;;;;;21.01;55.58;101797.67;1771424;79;21466;-50
2021/10/06 03:08:43;;;;;;;5.05;3.95;;;;;;;21.02;55.57;101798.77;1774063;79;21397;-49
2021/10/06 03:11:09;;;;;;;4.75;3.70;;;;;;;21.03;55.61;101794.06;1770499;79;21097;-52
2021/10/06 03:13:35;;;;;;;5.17;4.10;;;;;;;21.07;55.63;101793.73;1766836;79;21038;-48
2021/10/06 03:16:01;;;;;;;5.42;4.00;;;;;;;21.09;55.64;101789.53;1767321;79;20906;-51
2021/10/06 03:18:27;;;;;;;5.72;3.70;;;;;;;21.14;55.62;101790.06;1771137;79;21166;-48
2021/10/06 03:20:53;;;;;;;5.12;3.40;;;;;;;21.17;55.60;101792.25;1769470;79;21020;-51
2021/10/06 03:23:20;;;;;;;4.72;3.40;;;;;;;21.20;55.58;101793.03;1768818;79;20973;-49
2021/10/06 03:25:46;;;;;;;4.42;3.30;;;;;;;21.24;55.59;101788.55;1769581;79;21022;-51
2021/10/06 03:28:12;;;;;;;3.95;3.27;;;;;;;21.27;55.57;101793.48;1766682;79;20998;-50
2021/10/06 03:30:39;;;;;;;3.92;3.12;;;;;;;21.30;55.54;101792.91;1793231;79;22019;-50
2021/10/06 03:33:05;;;;;;;4.58;3.00;;;;;;;21.33;55.52;101791.73;1795586;79;21016;-50
2021/10/06 03:35:31;;;;;;;3.83;2.90;;;;;;;21.36;55.52;101786.98;1788107;77;20894;-48
2021/10/06 03:37:57;;;;;;;4.72;3.02;;;;;;;21.39;55.48;101787.76;1794486;79;21077;-51
2021/10/06 03:40:23;;;;;;;6.00;3.15;;;;;;;21.43;55.47;101793.52;1796954;77;21601;-49
2021/10/06 03:42:50;;;;;;;4.12;2.95;;;;;;;21.46;55.45;101787.40;1795594;79;21325;-53
2021/10/06 03:45:16;;;;;;;5.30;3.30;;;;;;;21.49;55.42;101785.41;1794226;78;21562;-50
2021/10/06 03:47:42;;;;;;;3.90;2.70;;;;;;;21.51;55.41;101779.02;1792282;77;21113;-51
2021/10/06 03:50:10;;;;;;;4.17;3.00;;;;;;;21.53;55.38;101780.91;1771167;79;21469;-51
2021/10/06 03:52:36;;;;;;;3.75;2.60;;;;;;;21.56;55.38;101776.70;1795605;79;21545;-52
2021/10/06 03:55:05;;;;;;;3.02;2.15;;;;;;;21.58;55.34;101776.69;1774470;78;21203;-50
2021/10/06 03:57:31;;;;;;;3.90;2.25;;;;;;;21.60;55.33;101776.39;1773005;78;21064;-50
2021/10/06 03:59:57;;;;;;;2.72;2.10;;;;;;;21.63;55.31;101778.00;1768564;79;20940;-52
2021/10/06 04:02:23;;;;;;;2.92;2.12;;;;;;;21.66;55.29;101782.92;1771669;79;20959;-49
2021/10/06 04:04:49;;;;;;;2.72;1.90;;;;;;;21.69;55.31;101790.63;1772407;79;20885;-53
2021/10/06 04:07:15;;;;;;;3.45;2.17;;;;;;;21.71;55.29;101790.33;1774908;79;21243;-50
2021/10/06 04:09:41;;;;;;;2.80;2.02;;;;;;;21.72;55.26;101790.59;1774782;79;21016;-50
2021/10/06 04:12:08;;;;;;;3.47;2.40;;;;;;;21.74;55.25;101793.31;1767863;79;20873;-51
2021/10/06 04:14:34;;;;;;;4.47;2.30;;;;;;;21.76;55.22;101797.18;1776049;79;21106;-51
2021/10/06 04:16:59;;;;;;;2.75;2.00;;;;;;;21.79;55.21;101792.41;1782707;79;20879;-50
2021/10/06 04:19:25;;;;;;;2.33;1.92;;;;;;;21.80;55.19;101801.81;1772636;79;21328;-47
2021/10/06 04:21:52;;;;;;;3.17;2.17;;;;;;;21.82;55.19;101809.81;1786403;78;21129;-49
2021/10/06 04:24:18;;;;;;;2.30;1.72;;;;;;;21.83;55.18;101810.08;1795002;79;20978;-51
2021/10/06 04:26:44;;;;;;;3.37;2.15;;;;;;;21.85;55.15;101808.63;1794553;78;21389;-51
2021/10/06 04:29:10;;;;;;;2.80;2.10;;;;;;;21.86;55.16;101810.84;1796227;78;21022;-50
2021/10/06 04:31:36;;;;;;;3.08;2.17;;;;;;;21.88;55.13;101815.54;1791853;78;21331;-50
2021/10/06 04:34:02;;;;;;;3.02;2.20;;;;;;;21.90;55.13;101806.94;1768022;79;20917;-49
2021/10/06 04:36:28;;;;;;;3.30;2.22;;;;;;;21.90;55.12;101803.58;1743039;80;20932;-53
2021/10/06 04:38:54;;;;;;;3.12;2.30;;;;;;;21.92;55.10;101799.13;1770315;78;20907;-49
2021/10/06 04:41:20;;;;;;;2.35;1.65;;;;;;;21.93;55.08;101806.35;1785470;78;20961;-50
2021/10/06 04:43:46;;;;;;;3.08;2.20;;;;;;;21.95;55.06;101804.91;1791412;78;21386;-51
2021/10/06 04:46:12;;;;;;;2.58;2.00;;;;;;;21.98;55.04;101809.84;1773187;78;21052;-45
2021/10/06 04:48:39;;;;;;;9.25;3.90;;;;;;;22.01;55.06;101802.89;1780489;78;21240;-45
2021/10/06 04:51:05;;;;;;;9.15;4.03;;;;;;;22.02;55.02;101809.52;1771563;78;21797;-47
2021/10/06 04:53:31;;;;;;;7.20;3.92;;;;;;;22.05;55.01;101811.68;1777881;78;20988;-45
2021/10/06 04:55:57;;;;;;;6.92;3.70;;;;;;;22.06;55.01;101805.02;1779209;78;21058;-46
2021/10/06 04:58:23;;;;;;;4.83;3.17;;;;;;;22.08;55.02;101801.92;1775005;78;21062;-46
2021/10/06 05:00:49;;;;;;;6.58;3.67;;;;;;;22.09;54.98;101798.03;1774575;78;21530;-47
2021/10/06 05:03:15;;;;;;;6.83;3.72;;;;;;;22.09;54.96;101800.24;1793683;78;21089;-46
2021/10/06 05:05:42;;;;;;;8.13;4.05;;;;;;;22.11;54.91;101800.75;1788481;77;21080;-45
2021/10/06 05:08:08;;;;;;;26.17;9.03;;;;;;;22.12;54.87;101800.19;1787189;77;21595;-45
2021/10/06 05:10:35;;;;;;;39.15;9.83;;;;;;;22.14;54.82;101800.72;1795146;77;21063;-49
2021/10/06 05:13:01;;;;;;;21.93;6.40;;;;;;;22.16;54.77;101804.82;1784528;77;22424;-46
2021/10/06 05:15:27;;;;;;;40.15;10.70;;;;;;;22.17;54.73;101800.10;1792951;77;21062;-50
2021/10/06 05:17:53;;;;;;;15.05;5.62;;;;;;;22.18;54.70;101803.97;1794026;79;21115;-47
2021/10/06 05:20:20;;;;;;;14.60;4.80;;;;;;;22.20;54.67;101810.58;1798867;77;20943;-45
2021/10/06 05:22:46;;;;;;;6.85;4.28;;;;;;;22.21;54.62;101810.84;1793822;79;21073;-46
2021/10/06 05:25:12;;;;;;;11.40;5.30;;;;;;;22.22;54.62;101809.72;1790904;79;22502;-45
2021/10/06 05:27:38;;;;;;;61.02;15.18;;;;;;;22.22;54.60;101811.11;1793599;77;21014;-47
2021/10/06 05:30:07;;;;;;;125.12;31.57;;;;;;;22.23;54.61;101815.53;1797364;77;20913;-47
2021/10/06 05:32:34;;;;;;;132.32;29.80;;;;;;;22.24;54.60;101819.92;1800233;77;21495;-54
2021/10/06 05:35:00;;;;;;;45.00;11.38;;;;;;;22.24;54.61;101828.24;1795825;77;20955;-53
2021/10/06 05:37:26;;;;;;;31.82;9.75;;;;;;;22.24;54.63;101817.98;1796560;77;20938;-55
2021/10/06 05:39:53;;;;;;;99.05;25.27;;;;;;;22.24;54.61;101819.92;1795105;79;21058;-55
2021/10/06 05:42:19;;;;;;;44.95;12.75;;;;;;;22.25;54.65;101821.58;1792795;77;21108;-55
2021/10/06 05:44:46;;;;;;;126.75;30.97;;;;;;;22.25;54.65;101817.42;1794069;77;21125;-54
2021/10/06 05:47:13;;;;;;;57.98;15.80;;;;;;;22.25;54.67;101821.58;1795211;78;21026;-50
2021/10/06 05:49:39;;;;;;;18.20;5.85;;;;;;;22.26;54.69;101821.84;1779106;78;21060;-49
2021/10/06 05:52:05;;;;;;;13.78;5.08;;;;;;;22.25;54.72;101821.02;1790933;77;20883;-51
2021/10/06 05:54:31;;;;;;;24.27;7.25;;;;;;;22.25;54.71;101819.63;1794879;77;21371;-49
2021/10/06 05:56:57;;;;;;;50.52;13.05;;;;;;;22.25;54.72;101816.03;1794302;77;21323;-50
2021/10/06 05:59:23;;;;;;;37.10;9.20;;;;;;;22.25;54.74;101821.58;1802587;78;21669;-51
2021/10/06 06:01:49;;;;;;;21.87;7.05;;;;;;;22.24;54.75;101817.16;1792170;77;21034;-50
2021/10/06 06:04:17;;;;;;;27.00;7.87;;;;;;;22.23;54.77;101820.52;1793424;77;21465;-52
2021/10/06 06:06:45;;;;;;;21.62;6.35;;;;;;;22.23;54.81;101825.23;1790836;79;21026;-49
2021/10/06 06:09:11;;;;;;;24.47;7.50;;;;;;;22.22;54.82;101823.58;1792540;77;21194;-49
2021/10/06 06:11:38;;;;;;;45.80;11.40;;;;;;;22.22;54.87;101822.20;1794227;77;21637;-48
2021/10/06 06:14:06;;;;;;;50.80;11.90;;;;;;;22.20;54.91;101814.17;1790680;77;21070;-49
2021/10/06 06:16:32;;;;;;;27.48;8.30;;;;;;;22.20;54.89;101818.89;1797493;78;21040;-50
2021/10/06 06:18:58;;;;;;;20.85;7.00;;;;;;;22.20;54.92;101827.20;1787558;77;21095;-47
2021/10/06 06:21:27;;;;;;;21.73;7.28;;;;;;;22.19;54.96;101822.81;1785592;79;21740;-47
2021/10/06 06:23:53;;;;;;;25.70;7.28;;;;;;;22.18;54.98;101817.00;1781313;79;21076;-50
2021/10/06 06:26:19;;;;;;;25.60;7.25;;;;;;;22.17;55.00;101820.33;1767163;80;20945;-50
2021/10/06 06:28:45;;;;;;;22.52;7.45;;;;;;;22.16;55.03;101817.30;1760391;80;21661;-48
2021/10/06 06:31:11;;;;;;;22.07;6.67;;;;;;;22.16;55.04;101814.52;1770213;79;20911;-46
2021/10/06 06:33:37;;;;;;;18.05;6.45;;;;;;;22.15;55.05;101822.57;1782245;79;21590;-47
2021/10/06 06:36:04;;;;;;;14.98;5.90;;;;;;;22.14;55.05;101826.49;1772496;79;21098;-48
2021/10/06 06:38:30;;;;;;;19.32;6.28;;;;;;;22.14;55.06;101820.13;1779118;79;21064;-46
2021/10/06 06:40:56;;;;;;;16.85;5.42;;;;;;;22.13;55.07;101830.38;1769620;79;21079;-49
2021/10/06 06:43:23;;;;;;;20.92;6.20;;;;;;;22.12;55.03;101827.91;1770129;79;21886;-51
2021/10/06 06:45:49;;;;;;;16.10;6.08;;;;;;;22.12;55.04;101825.13;1774866;79;21314;-48
2021/10/06 06:48:15;;;;;;;21.77;6.58;;;;;;;22.10;55.04;101829.61;1768398;79;20970;-50
2021/10/06 06:50:41;;;;;;;17.20;5.83;;;;;;;22.11;55.02;101834.01;1780695;79;21131;-50
2021/10/06 06:53:07;;;;;;;12.63;5.40;;;;;;;22.09;55.04;101825.19;1780331;79;21090;-49
2021/10/06 06:55:33;;;;;;;17.30;5.70;;;;;;;22.08;55.02;101822.70;1770481;79;21077;-49
2021/10/06 06:57:59;;;;;;;15.65;6.15;;;;;;;22.09;55.00;101828.52;1775117;79;21124;-48
2021/10/06 07:00:25;;;;;;;10.93;5.15;;;;;;;22.06;55.00;101834.12;1778624;79;21571;-46
2021/10/06 07:02:51;;;;;;;16.70;5.50;;;;;;;22.06;54.99;101838.27;1775785;79;21140;-48
2021/10/06 07:05:18;;;;;;;11.40;5.05;;;;;;;22.06;54.98;101834.67;1774327;79;21665;-48
2021/10/06 07:07:47;;;;;;;12.13;5.17;;;;;;;22.05;54.97;101833.02;1766819;79;21120;-50
2021/10/06 07:10:12;;;;;;;13.03;5.00;;;;;;;22.05;54.95;101842.72;1770011;79;21095;-50
2021/10/06 07:12:39;;;;;;;10.43;4.85;;;;;;;22.04;54.95;101836.91;1766979;79;21694;-49
2021/10/06 07:15:06;;;;;;;11.73;5.00;;;;;;;22.03;54.94;101839.42;1771183;79;21523;-49
2021/10/06 07:17:33;;;;;;;13.00;5.00;;;;;;;22.02;54.93;101830.31;1773743;79;21057;-52
2021/10/06 07:19:59;;;;;;;10.80;4.80;;;;;;;22.01;54.90;101830.04;1761400;79;21511;-48
2021/10/06 07:22:25;;;;;;;9.80;4.75;;;;;;;22.02;54.90;101825.33;1768762;79;21255;-51
2021/10/06 07:24:51;;;;;;;12.85;4.95;;;;;;;22.01;54.89;101820.91;1762624;79;20942;-51
2021/10/06 07:27:17;;;;;;;12.75;4.62;;;;;;;21.99;54.88;101824.52;1774410;79;21173;-51
2021/10/06 07:29:43;;;;;;;13.80;5.10;;;;;;;21.98;54.86;101828.44;1783204;79;20860;-47
2021/10/06 07:32:09;;;;;;;10.50;4.55;;;;;;;21.96;54.84;101821.80;1793338;78;21276;-52
2021/10/06 07:34:35;;;;;;;11.55;4.40;;;;;;;21.97;54.85;101822.08;1797766;79;21541;-50
2021/10/06 07:37:02;;;;;;;15.98;5.25;;;;;;;21.95;54.84;101823.48;1795991;78;20956;-50
2021/10/06 07:39:28;;;;;;;12.05;4.60;;;;;;;21.94;54.83;101828.78;1792675;79;21077;-49
2021/10/06 07:41:54;;;;;;;14.55;4.80;;;;;;;21.94;54.82;101827.40;1794655;79;21077;-51
2021/10/06 07:44:20;;;;;;;13.58;4.55;;;;;;;21.93;54.80;101825.19;1792642;78;21109;-49
2021/10/06 07:46:46;;;;;;;10.20;4.58;;;;;;;21.93;54.79;101826.58;1795729;79;21133;-50
2021/10/06 07:49:12;;;;;;;7.08;4.30;;;;;;;21.93;54.76;101829.34;1792294;79;21109;-49
2021/10/06 07:51:39;;;;;;;8.38;4.87;;;;;;;21.93;54.76;101834.06;1788838;79;21121;-48
2021/10/06 07:54:05;;;;;;;16.02;4.55;;;;;;;21.92;54.74;101833.77;1791708;79;21573;-50
2021/10/06 07:56:31;;;;;;;9.63;4.50;;;;;;;21.91;54.74;101837.09;1789007;78;21062;-49
2021/10/06 07:58:57;;;;;;;8.90;4.15;;;;;;;21.92;54.74;101836.53;1789180;79;21382;-48
2021/10/06 08:01:24;;;;;;;10.72;4.80;;;;;;;21.91;54.70;101826.01;1792746;78;21076;-48
2021/10/06 08:03:50;;;;;;;8.90;4.35;;;;;;;21.91;54.70;101827.95;1772919;78;21032;-50
2021/10/06 08:06:16;;;;;;;9.20;4.10;;;;;;;21.89;54.70;101822.73;1764611;79;20952;-50
2021/10/06 08:08:42;;;;;;;9.20;4.10;;;;;;;21.88;54.68;101820.52;1791975;79;21681;-47
2021/10/06 08:11:08;;;;;;;10.88;4.45;;;;;;;21.88;54.68;101817.75;1786536;79;21319;-47
2021/10/06 08:13:34;;;;;;;12.03;4.72;;;;;;;21.87;54.66;101804.19;1791997;79;21303;-48
2021/10/06 08:16:00;;;;;;;9.80;4.00;;;;;;;21.86;54.65;101810.28;1790708;78;21054;-51
2021/10/06 08:18:26;;;;;;;9.33;4.17;;;;;;;21.86;54.65;101806.13;1787396;79;21047;-48
2021/10/06 08:20:53;;;;;;;8.60;4.05;;;;;;;21.86;54.64;101803.36;1798608;78;21086;-48
2021/10/06 08:23:20;;;;;;;7.67;4.03;;;;;;;21.85;54.61;101804.48;1793856;78;21061;-48
2021/10/06 08:25:50;;;;;;;9.73;4.00;;;;;;;21.85;54.60;101811.41;1787378;78;21074;-49
2021/10/06 08:28:17;;;;;;;8.50;3.67;;;;;;;21.84;54.60;101807.02;1788077;78;21140;-48
2021/10/06 08:30:43;;;;;;;8.48;3.80;;;;;;;21.83;54.60;101803.97;1793078;78;21115;-50
2021/10/06 08:33:09;;;;;;;8.00;3.45;;;;;;;21.83;54.58;101809.52;1793527;79;21161;-47
2021/10/06 08:35:37;;;;;;;8.73;4.12;;;;;;;21.83;54.58;101810.90;1789366;79;22047;-48
2021/10/06 08:38:04;;;;;;;9.65;3.85;;;;;;;21.82;54.55;101806.48;1792058;79;21471;-50
2021/10/06 08:40:32;;;;;;;11.80;4.03;;;;;;;21.82;54.55;101805.09;1790705;79;20997;-47
2021/10/06 08:42:58;;;;;;;8.18;3.60;;;;;;;21.82;54.53;101803.70;1795321;78;21078;-49
2021/10/06 08:45:24;;;;;;;9.85;3.77;;;;;;;21.80;54.50;101794.89;1795106;78;20927;-49
2021/10/06 08:47:50;;;;;;;7.72;3.58;;;;;;;21.80;54.49;101787.14;1793744;79;21055;-47
2021/10/06 08:50:17;;;;;;;8.45;4.28;;;;;;;21.80;54.49;101793.51;1796663;78;21418;-50
2021/10/06 08:52:46;;;;;;;7.58;4.00;;;;;;;21.80;54.46;101794.89;1792264;78;21034;-50
2021/10/06 08:55:13;;;;;;;8.45;3.95;;;;;;;21.80;54.46;101792.68;1790871;78;21084;-49
2021/10/06 08:57:39;;;;;;;7.37;3.72;;;;;;;21.80;54.44;101787.14;1789399;78;20993;-47
2021/10/06 09:00:07;;;;;;;9.30;3.83;;;;;;;21.79;54.42;101778.00;1776215;79;21061;-51
2021/10/06 09:02:41;;;;;;;11.40;3.80;;;;;;;21.78;54.41;101783.28;1791476;79;21023;-48
2021/10/06 09:05:10;;;;;;;6.47;3.58;;;;;;;21.77;54.41;101771.92;1771825;78;21550;-46
2021/10/06 09:07:58;;;;;;;7.67;3.58;;;;;;;21.77;54.39;101781.63;1769617;78;21003;-48
2021/10/06 09:10:25;;;;;;;6.45;3.67;;;;;;;21.77;54.41;101787.16;1786337;78;21566;-49
2021/10/06 09:13:02;;;;;;;9.68;3.65;;;;;;;21.76;54.37;101780.56;1788055;79;21279;-46
2021/10/06 09:15:41;;;;;;;5.65;3.17;;;;;;;21.75;54.37;101781.12;1793213;78;21079;-50
2021/10/06 09:18:14;;;;;;;6.40;3.20;;;;;;;21.74;54.36;101785.00;1797581;78;21190;-47
2021/10/06 09:20:40;;;;;;;5.47;2.98;;;;;;;21.74;54.37;101785.56;1782129;79;21622;-50
2021/10/06 09:23:10;;;;;;;6.33;3.40;;;;;;;21.73;54.37;101784.73;1792171;78;21005;-47
2021/10/06 09:26:00;;;;;;;7.35;3.40;;;;;;;21.73;54.35;101782.53;1791302;78;21390;-47
2021/10/06 09:28:35;;;;;;;6.67;3.60;;;;;;;21.72;54.36;101773.98;1788412;78;21524;-48
2021/10/06 09:31:08;;;;;;;5.65;3.58;;;;;;;21.71;54.38;101773.71;1795742;78;21643;-50
2021/10/06 09:33:44;;;;;;;5.53;3.42;;;;;;;21.70;54.33;101767.34;1793402;78;21597;-49
2021/10/06 09:36:14;;;;;;;5.22;3.15;;;;;;;21.70;54.35;101769.29;1790810;78;21118;-48
2021/10/06 09:38:50;;;;;;;9.07;3.60;;;;;;;21.69;54.34;101771.79;1786238;78;22114;-48
2021/10/06 09:41:35;;;;;;;5.92;3.30;;;;;;;21.68;54.34;101765.45;1788929;78;21005;-49
2021/10/06 09:44:18;;;;;;;5.78;3.62;;;;;;;21.69;54.35;101771.23;1790045;78;21063;-47
2021/10/06 09:46:53;;;;;;;6.28;3.62;;;;;;;21.68;54.34;101757.15;1788128;78;21028;-48
2021/10/06 09:49:29;;;;;;;6.55;3.67;;;;;;;21.69;54.33;101756.56;1790792;78;21013;-51
2021/10/06 09:52:18;;;;;;;8.18;3.42;;;;;;;21.69;54.31;101752.41;1788763;78;21951;-51
2021/10/06 09:55:02;;;;;;;5.83;3.20;;;;;;;21.69;54.29;101753.23;1791369;78;21067;-52
2021/10/06 09:57:34;;;;;;;6.37;3.22;;;;;;;21.70;54.28;101742.98;1789847;78;21054;-49
2021/10/06 10:00:07;;;;;;;6.03;3.42;;;;;;;21.72;54.27;101743.52;1789675;78;21473;-48
2021/10/06 10:02:35;;;;;;;6.65;3.52;;;;;;;21.69;54.25;101739.38;1791117;78;36064;-49
2021/10/06 10:05:02;;;;;;;6.30;3.08;;;;;;;21.70;54.26;101743.80;1790494;78;21208;-50
2021/10/06 10:07:29;;;;;;;6.55;3.40;;;;;;;21.71;54.24;101742.69;1787812;78;21583;-51
2021/10/06 10:09:55;;;;;;;8.28;3.40;;;;;;;21.71;54.22;101743.25;1785328;78;21073;-51
2021/10/06 10:12:24;;;;;;;6.08;3.40;;;;;;;21.72;54.21;101740.19;1789354;78;21074;-48
2021/10/06 10:14:50;;;;;;;5.62;2.98;;;;;;;21.72;54.18;101736.03;1789012;78;21028;-49
2021/10/06 10:17:16;;;;;;;6.25;2.80;;;;;;;21.73;54.19;101731.28;1786717;78;21118;-50
2021/10/06 10:19:44;;;;;;;7.17;3.45;;;;;;;21.74;54.16;101728.22;1787281;78;20995;-50
2021/10/06 10:22:12;;;;;;;6.15;3.62;;;;;;;21.74;54.14;101733.77;1786889;78;21058;-50
2021/10/06 10:24:46;;;;;;;5.33;3.12;;;;;;;21.75;54.12;101729.05;1785313;80;21125;-49
2021/10/06 10:27:15;;;;;;;5.25;2.95;;;;;;;21.76;54.10;101719.06;1784512;78;21783;-50
2021/10/06 10:30:05;;;;;;;4.92;3.20;;;;;;;21.77;54.09;101716.53;1780271;80;21139;-49
2021/10/06 10:32:43;;;;;;;;;;;;;;;21.77;54.07;101712.93;1788208;78;21480;-48
2021/10/06 10:35:15;;;;;;;6.70;3.52;;;;;;;21.77;54.05;101719.86;1784113;78;20252;-51
2021/10/06 10:37:59;;;;;;;6.22;3.00;;;;;;;21.76;54.05;101711.31;1781387;78;21152;-50
2021/10/06 10:40:37;;;;;;;5.20;2.85;;;;;;;21.76;54.05;101710.75;1782644;78;21118;-53
2021/10/06 10:43:07;;;;;;;7.10;3.42;;;;;;;21.76;54.02;101709.37;1784788;78;21045;-51
2021/10/06 10:45:43;;;;;;;6.80;3.27;;;;;;;21.76;54.03;101705.22;1785027;78;21062;-50
2021/10/06 10:48:14;;;;;;;4.67;3.10;;;;;;;21.76;54.03;101698.29;1785023;78;21069;-48
2021/10/06 10:50:49;;;;;;;4.85;3.47;;;;;;;21.77;54.02;101701.85;1782761;78;21089;-49
2021/10/06 10:53:20;;;;;;;4.30;2.77;;;;;;;21.77;54.06;101698.52;1785179;78;21097;-49
2021/10/06 10:55:55;;;;;;;4.80;3.10;;;;;;;21.78;54.03;101687.70;1784501;78;21210;-51
2021/10/06 10:58:32;;;;;;;4.55;3.35;;;;;;;21.79;54.03;101699.61;1782400;78;21050;-49
2021/10/06 11:01:01;;;;;;;6.33;3.75;;;;;;;21.81;54.03;101689.06;1785855;78;21022;-53
2021/10/06 11:03:28;;;;;;;6.17;3.10;;;;;;;21.82;53.99;101694.84;1788209;78;21108;-49
2021/10/06 11:05:56;;;;;;;6.25;3.40;;;;;;;21.83;54.00;101692.34;1784452;78;21551;-48
2021/10/06 11:08:30;;;;;;;4.35;2.80;;;;;;;21.84;54.00;101696.76;1777681;79;21142;-50
2021/10/06 11:11:15;;;;;;;6.62;2.90;;;;;;;21.85;53.98;101697.82;1776518;79;21237;-50
2021/10/06 11:13:48;;;;;;;6.60;3.60;;;;;;;21.86;53.98;101693.11;1783475;79;21064;-48
2021/10/06 11:16:14;;;;;;;4.87;3.10;;;;;;;21.86;53.97;101693.11;1783320;79;21017;-52
2021/10/06 11:18:57;;;;;;;5.00;2.83;;;;;;;21.87;53.96;101685.06;1753907;80;21030;-51
2021/10/06 11:21:40;;;;;;;5.72;3.20;;;;;;;21.87;53.96;101680.91;1778619;79;21550;-51
2021/10/06 11:24:22;;;;;;;5.50;3.55;;;;;;;21.87;53.95;101676.75;1785949;78;21114;-49